Time;durP1;ratioP1;P1;durP2;ratioP2;P2;SDS_P1;SDS_P2;PMS_P1;PMS_P2;Temp;Humidity;BMP_temperature;BMP_pressure;BME280_temperature;BME280_humidity;BME280_pressure;Samples;Min_cycle;Max_cycle;Signal;HPM_P1;HPM_P2
2022/11/13 00:00:39;;;;;;;3.47;2.38;;;;;;;8.28;100.00;101844.88;4988171;28;20387;-63
2022/11/13 00:03:05;;;;;;;5.93;3.22;;;;;;;8.23;100.00;101846.09;4994834;28;20034;-63
2022/11/13 00:05:30;;;;;;;7.28;2.92;;;;;;;8.38;100.00;101845.16;5000744;28;20418;-63
2022/11/13 00:07:56;;;;;;;6.07;2.83;;;;;;;8.70;100.00;101843.09;4993636;28;20038;-63
2022/11/13 00:10:21;;;;;;;4.63;2.00;;;;;;;9.00;100.00;101840.25;4988429;28;20042;-63
2022/11/13 00:12:46;;;;;;;5.65;2.60;;;;;;;9.35;100.00;101832.72;4994112;28;20018;-63
2022/11/13 00:15:12;;;;;;;2.47;1.50;;;;;;;10.14;100.00;101821.16;4988717;28;20473;-64
2022/11/13 00:17:37;;;;;;;4.20;1.98;;;;;;;10.76;98.19;101819.25;4985766;28;20033;-63
2022/11/13 00:20:03;;;;;;;2.90;1.50;;;;;;;10.89;94.08;101809.56;4989390;28;20565;-63
2022/11/13 00:22:29;;;;;;;4.82;1.83;;;;;;;11.09;92.04;101815.06;4992057;28;20030;-63
2022/11/13 00:24:54;;;;;;;5.70;1.95;;;;;;;11.11;93.90;101808.81;4993908;28;20371;-63
2022/11/13 00:27:19;;;;;;;3.92;1.67;;;;;;;10.77;97.18;101807.88;4990184;28;20513;-63
2022/11/13 00:29:45;;;;;;;3.45;1.95;;;;;;;10.40;100.00;101795.88;4993554;28;20030;-63
2022/11/13 00:32:10;;;;;;;3.17;1.85;;;;;;;10.07;100.00;101799.91;4992185;28;20393;-63
2022/11/13 00:34:36;;;;;;;4.05;1.88;;;;;;;9.85;100.00;101815.41;4994962;28;20034;-63
2022/11/13 00:37:01;;;;;;;3.55;1.60;;;;;;;9.66;100.00;101813.22;4992746;28;20039;-63
2022/11/13 00:39:27;;;;;;;3.47;1.58;;;;;;;9.49;100.00;101824.78;4993567;28;20034;-64
2022/11/13 00:41:52;;;;;;;3.08;2.20;;;;;;;9.34;100.00;101817.22;4991689;28;20038;-63
2022/11/13 00:44:17;;;;;;;4.18;2.20;;;;;;;9.29;100.00;101817.53;4990576;28;20022;-63
2022/11/13 00:46:43;;;;;;;4.82;2.08;;;;;;;9.31;100.00;101821.69;4991863;28;20034;-63
2022/11/13 00:49:09;;;;;;;5.72;2.35;;;;;;;9.27;100.00;101819.41;4993556;28;20030;-63
2022/11/13 00:51:34;;;;;;;3.90;2.38;;;;;;;9.38;100.00;101821.28;4990022;28;20042;-62
2022/11/13 00:54:00;;;;;;;3.95;2.38;;;;;;;9.48;100.00;101801.47;4991735;28;20373;-62
2022/11/13 00:56:25;;;;;;;4.72;2.67;;;;;;;9.73;100.00;101811.03;4993737;28;20026;-62
2022/11/13 00:58:51;;;;;;;4.10;2.63;;;;;;;9.92;100.00;101821.84;4990193;28;20041;-62
2022/11/13 01:01:18;;;;;;;2.90;1.95;;;;;;;10.06;100.00;101834.72;4993105;28;20041;-63
2022/11/13 01:03:44;;;;;;;4.88;2.03;;;;;;;10.18;100.00;101823.44;4990440;28;20042;-63
2022/11/13 01:06:09;;;;;;;5.38;2.42;;;;;;;10.21;100.00;101828.47;4990108;28;20042;-62
2022/11/13 01:08:35;;;;;;;5.80;2.90;;;;;;;10.35;99.70;101829.25;4993724;28;20050;-62
2022/11/13 01:11:07;;;;;;;5.40;2.75;;;;;;;10.64;96.06;101833.19;4992195;28;20030;-62
2022/11/13 01:13:33;;;;;;;4.90;2.40;;;;;;;10.83;95.41;101836.13;4990989;28;20038;-62
2022/11/13 01:15:58;;;;;;;4.38;2.78;;;;;;;10.81;96.23;101840.59;4992172;28;20084;-63
2022/11/13 01:18:24;;;;;;;6.95;3.42;;;;;;;10.82;95.55;101847.47;4991305;28;20037;-62
2022/11/13 01:20:49;;;;;;;5.95;2.63;;;;;;;10.86;95.40;101833.28;4992934;28;20039;-63
2022/11/13 01:23:14;;;;;;;4.63;2.45;;;;;;;10.87;95.24;101826.28;4991533;28;20620;-63
2022/11/13 01:25:40;;;;;;;3.55;2.60;;;;;;;11.01;91.47;101828.69;4994030;28;20113;-62
2022/11/13 01:28:05;;;;;;;6.38;2.97;;;;;;;10.97;92.21;101811.59;4990428;28;20050;-63
2022/11/13 01:30:31;;;;;;;5.13;2.65;;;;;;;10.92;92.28;101793.69;4995353;28;20038;-63
2022/11/13 01:32:56;;;;;;;9.30;4.18;;;;;;;10.82;92.50;101813.59;4992805;28;20037;-63
2022/11/13 01:35:22;;;;;;;4.78;2.60;;;;;;;10.74;93.06;101769.00;4994237;28;20026;-62
2022/11/13 01:37:47;;;;;;;7.65;2.40;;;;;;;10.51;94.97;101777.69;4993912;28;20042;-63
2022/11/13 01:40:13;;;;;;;8.85;2.60;;;;;;;10.38;96.72;101766.50;4991295;28;20477;-62
2022/11/13 01:42:38;;;;;;;5.85;2.75;;;;;;;10.19;98.95;101775.66;4990026;28;20065;-63
2022/11/13 01:45:43;;;;;;;5.78;2.60;;;;;;;9.96;99.22;101769.44;4993685;28;20096;-63
2022/11/13 01:48:11;;;;;;;4.25;2.28;;;;;;;9.74;100.00;101771.06;4986570;28;20042;-63
2022/11/13 01:50:37;;;;;;;3.45;2.40;;;;;;;9.81;99.70;101754.09;4992094;28;20534;-63
2022/11/13 01:53:03;;;;;;;5.13;2.10;;;;;;;10.71;90.92;101757.97;4992033;28;20038;-62
2022/11/13 01:55:28;;;;;;;3.83;1.45;;;;;;;11.57;81.69;101748.69;4993595;28;20377;-63
2022/11/13 01:57:55;;;;;;;2.58;1.33;;;;;;;12.26;79.46;101735.41;4995442;28;20034;-62
2022/11/13 02:00:20;;;;;;;4.57;2.47;;;;;;;12.40;76.06;101726.41;4991177;28;20034;-62
2022/11/13 02:02:46;;;;;;;5.90;2.45;;;;;;;12.40;75.99;101723.81;4999081;28;20038;-64
2022/11/13 02:05:11;;;;;;;6.18;3.05;;;;;;;12.34;76.16;101712.06;4987602;28;20486;-62
2022/11/13 02:07:37;;;;;;;4.00;2.33;;;;;;;12.31;79.12;101707.09;4993171;28;20057;-62
2022/11/13 02:10:02;;;;;;;2.90;2.10;;;;;;;12.17;80.05;101710.03;4990624;28;20485;-64
2022/11/13 02:12:33;;;;;;;8.13;3.17;;;;;;;12.12;80.93;101707.78;4996196;28;20084;-63
2022/11/13 02:15:01;;;;;;;6.13;2.55;;;;;;;11.98;82.88;101715.88;4994608;28;20045;-63
2022/11/13 02:17:43;;;;;;;10.10;2.97;;;;;;;11.86;79.34;101709.84;4989146;28;20029;-62
2022/11/13 02:20:09;;;;;;;4.85;2.25;;;;;;;11.76;84.50;101710.72;4990274;28;20035;-63
2022/11/13 02:22:48;;;;;;;5.07;2.45;;;;;;;11.48;86.60;101705.03;4990776;28;20030;-62
2022/11/13 02:25:15;;;;;;;4.00;2.30;;;;;;;11.15;90.30;101721.53;4992363;28;20081;-63
2022/11/13 02:27:45;;;;;;;4.82;1.98;;;;;;;10.88;92.38;101710.59;4988427;28;20038;-63
2022/11/13 02:30:21;;;;;;;7.13;1.88;;;;;;;10.69;94.13;101713.78;4991845;28;20551;-62
2022/11/13 02:32:49;;;;;;;2.92;1.88;;;;;;;10.67;88.32;101720.03;4992001;28;20034;-63
2022/11/13 02:35:31;;;;;;;5.22;2.05;;;;;;;11.02;90.80;101709.56;4990227;28;20488;-63
2022/11/13 02:37:59;;;;;;;3.95;1.60;;;;;;;10.87;92.12;101720.19;4992603;28;20228;-63
2022/11/13 02:40:25;;;;;;;3.20;1.70;;;;;;;10.62;93.73;101720.38;4992252;28;20583;-63
2022/11/13 02:42:51;;;;;;;6.55;1.70;;;;;;;10.37;95.85;101715.34;4995789;28;20038;-63
2022/11/13 02:45:16;;;;;;;4.32;1.70;;;;;;;10.18;97.36;101714.03;4985708;28;20036;-62
2022/11/13 02:47:42;;;;;;;2.90;1.20;;;;;;;10.11;97.47;101707.63;4992216;28;20070;-63
2022/11/13 02:50:09;;;;;;;3.70;1.40;;;;;;;9.98;98.68;101693.81;4988398;28;20034;-62
2022/11/13 02:52:34;;;;;;;4.32;1.88;;;;;;;9.80;100.00;101700.38;4992119;28;20034;-63
2022/11/13 02:55:00;;;;;;;6.00;1.75;;;;;;;9.71;100.00;101694.03;4987877;28;20037;-63
2022/11/13 02:57:25;;;;;;;3.38;1.83;;;;;;;9.63;100.00;101689.38;4993937;28;20053;-62
2022/11/13 02:59:51;;;;;;;2.20;1.27;;;;;;;9.64;100.00;101691.03;4990903;28;20113;-63
2022/11/13 03:02:16;;;;;;;2.75;1.63;;;;;;;9.76;100.00;101683.31;4993129;28;20034;-62
2022/11/13 03:04:41;;;;;;;6.53;1.83;;;;;;;9.74;100.00;101686.00;4991842;28;20030;-62
2022/11/13 03:07:07;;;;;;;4.15;1.55;;;;;;;9.65;100.00;101687.50;4985996;28;20022;-62
2022/11/13 03:09:32;;;;;;;6.82;1.88;;;;;;;9.99;97.83;101688.50;4996765;28;20069;-62
2022/11/13 03:11:58;;;;;;;3.22;1.33;;;;;;;10.02;97.73;101682.25;4992297;28;20450;-62
2022/11/13 03:14:23;;;;;;;2.50;1.48;;;;;;;9.86;99.06;101694.72;4990130;28;20034;-63
2022/11/13 03:16:49;;;;;;;3.05;1.48;;;;;;;9.64;100.00;101692.81;4991321;28;20031;-62
2022/11/13 03:19:14;;;;;;;4.60;1.60;;;;;;;9.45;100.00;101693.25;4986822;28;20067;-63
2022/11/13 03:21:39;;;;;;;3.92;1.73;;;;;;;9.25;100.00;101694.66;4986773;28;20470;-63
2022/11/13 03:24:05;;;;;;;3.45;1.77;;;;;;;9.13;100.00;101692.06;4993539;28;20351;-63
2022/11/13 03:26:31;;;;;;;4.40;2.25;;;;;;;9.11;100.00;101683.53;4989677;28;20052;-62
2022/11/13 03:28:56;;;;;;;7.05;1.77;;;;;;;9.16;100.00;101687.50;4988880;28;20041;-63
2022/11/13 03:31:21;;;;;;;3.08;1.90;;;;;;;9.32;100.00;101700.28;4989909;28;20041;-63
2022/11/13 03:33:47;;;;;;;5.60;1.70;;;;;;;9.49;100.00;101675.66;4995825;28;20026;-62
2022/11/13 03:36:13;;;;;;;5.53;1.65;;;;;;;9.51;100.00;101674.63;4986657;28;20085;-62
2022/11/13 03:38:38;;;;;;;2.88;1.30;;;;;;;9.65;99.48;101684.88;4993741;28;20062;-63
2022/11/13 03:41:04;;;;;;;4.72;1.60;;;;;;;9.81;98.01;101686.41;4989449;28;20025;-63
2022/11/13 03:43:29;;;;;;;3.50;1.40;;;;;;;10.19;93.50;101674.06;4990439;28;20042;-62
2022/11/13 03:45:55;;;;;;;3.33;0.90;;;;;;;10.88;80.50;101667.09;4998335;28;20045;-64
2022/11/13 03:48:20;;;;;;;3.65;0.50;;;;;;;12.14;67.70;101658.84;4992708;28;20029;-64
2022/11/13 03:50:49;;;;;;;2.58;0.50;;;;;;;12.74;66.34;101661.72;4987556;28;20044;-63
2022/11/13 03:53:15;;;;;;;1.80;0.52;;;;;;;12.87;65.96;101655.28;4989303;28;20092;-63
2022/11/13 03:55:41;;;;;;;2.10;0.50;;;;;;;12.82;65.54;101647.00;4994791;28;20030;-62
2022/11/13 03:58:07;;;;;;;1.40;0.60;;;;;;;12.62;68.39;101650.50;4993766;28;20426;-63
2022/11/13 04:00:33;;;;;;;2.15;0.57;;;;;;;12.72;65.00;101655.78;4990547;28;20084;-63
2022/11/13 04:02:58;;;;;;;3.13;1.52;;;;;;;12.57;67.31;101629.97;4991904;28;20101;-63
2022/11/13 04:05:24;;;;;;;3.83;1.48;;;;;;;12.36;69.62;101642.22;4990305;28;20030;-64
2022/11/13 04:07:50;;;;;;;3.83;1.63;;;;;;;12.32;68.26;101645.19;4989277;28;20091;-62
2022/11/13 04:10:16;;;;;;;4.20;1.60;;;;;;;12.28;67.83;101652.50;4991175;28;20081;-64
2022/11/13 04:12:41;;;;;;;3.13;1.77;;;;;;;12.38;67.62;101660.38;4989048;28;20026;-65
2022/11/13 04:15:07;;;;;;;2.80;1.83;;;;;;;12.49;66.09;101624.56;4990095;28;20030;-64
2022/11/13 04:17:32;;;;;;;2.80;1.65;;;;;;;12.45;68.95;101631.00;4996403;28;20081;-62
2022/11/13 04:19:58;;;;;;;6.63;1.75;;;;;;;12.23;70.41;101636.38;4989416;28;20042;-63
2022/11/13 04:22:23;;;;;;;4.05;1.77;;;;;;;12.16;69.23;101622.97;4985532;28;20037;-62
2022/11/13 04:24:49;;;;;;;2.47;1.55;;;;;;;12.07;71.78;101628.94;4992603;28;20083;-63
2022/11/13 04:27:14;;;;;;;3.33;1.50;;;;;;;11.95;71.51;101635.16;4989229;28;20066;-62
2022/11/13 04:29:40;;;;;;;4.10;1.60;;;;;;;11.94;73.33;101647.41;4989590;28;20022;-63
2022/11/13 04:32:05;;;;;;;3.80;1.45;;;;;;;11.86;74.58;101672.47;4989835;28;20033;-63
2022/11/13 04:34:31;;;;;;;3.53;1.15;;;;;;;11.64;76.44;101679.41;4991936;28;20104;-62
2022/11/13 04:36:56;;;;;;;4.50;1.25;;;;;;;11.44;78.50;101700.19;4984828;28;20031;-63
2022/11/13 04:39:22;;;;;;;2.10;0.95;;;;;;;11.19;80.58;101693.44;4996289;28;20947;-63
2022/11/13 04:44:31;;;;;;;4.20;1.75;;;;;;;10.64;85.73;101713.28;4992302;28;20080;-63
2022/11/13 04:46:57;;;;;;;5.18;1.55;;;;;;;10.41;86.95;101703.72;4991660;28;20038;-63
2022/11/13 04:49:22;;;;;;;3.60;1.30;;;;;;;10.30;87.81;101689.75;4990408;28;20026;-63
2022/11/13 04:51:47;;;;;;;2.85;1.58;;;;;;;10.08;90.48;101702.63;4984900;28;20031;-63
2022/11/13 04:54:13;;;;;;;3.40;1.65;;;;;;;9.98;91.08;101710.28;4989478;28;20065;-63
2022/11/13 04:56:38;;;;;;;3.20;1.67;;;;;;;9.93;91.34;101688.09;4990981;28;20062;-62
2022/11/13 04:59:04;;;;;;;5.32;2.58;;;;;;;9.85;92.21;101716.47;4991610;28;20034;-63
2022/11/13 05:01:29;;;;;;;3.10;1.83;;;;;;;9.73;93.45;101727.75;4990506;28;20107;-63
2022/11/13 05:03:54;;;;;;;4.22;2.15;;;;;;;9.63;93.97;101697.19;4992207;28;20125;-63
2022/11/13 05:06:20;;;;;;;2.72;1.70;;;;;;;10.74;80.88;101653.47;4989044;28;20038;-63
2022/11/13 05:08:46;;;;;;;6.38;1.77;;;;;;;10.73;81.94;101663.06;4992064;28;20050;-63
2022/11/13 05:11:12;;;;;;;2.97;1.75;;;;;;;10.84;82.13;101711.81;4994285;28;20038;-63
2022/11/13 05:13:37;;;;;;;6.35;1.88;;;;;;;10.64;84.63;101727.16;4993183;28;20100;-62
2022/11/13 05:16:05;;;;;;;3.95;1.95;;;;;;;10.41;86.37;101727.16;4992220;28;20418;-63
2022/11/13 05:18:31;;;;;;;4.68;1.80;;;;;;;10.40;86.96;101722.94;4992520;28;20034;-63
2022/11/13 05:20:57;;;;;;;7.53;2.38;;;;;;;10.34;87.43;101739.03;4989800;28;20121;-63
2022/11/13 05:23:23;;;;;;;4.03;2.03;;;;;;;10.42;86.94;101742.69;4987255;28;20182;-63
2022/11/13 05:25:49;;;;;;;6.88;2.47;;;;;;;10.36;87.42;101742.34;4994069;28;20034;-63
2022/11/13 05:28:14;;;;;;;8.57;2.40;;;;;;;10.40;86.79;101743.78;4994947;28;20030;-62
2022/11/13 05:30:40;;;;;;;5.68;2.53;;;;;;;10.50;85.77;101745.56;5000892;28;20086;-63
2022/11/13 05:33:05;;;;;;;4.10;1.88;;;;;;;10.41;87.45;101748.84;4990545;28;20117;-63
2022/11/13 05:35:30;;;;;;;3.35;1.65;;;;;;;10.46;86.50;101751.94;4991950;28;20370;-63
2022/11/13 05:38:00;;;;;;;5.53;2.00;;;;;;;10.51;86.09;101764.66;4992497;28;20030;-63
2022/11/13 05:40:26;;;;;;;2.83;1.73;;;;;;;10.41;87.45;101767.09;4993276;28;20052;-62
2022/11/13 05:42:55;;;;;;;3.53;1.58;;;;;;;10.24;88.61;101781.34;5000621;28;20040;-63
2022/11/13 05:45:22;;;;;;;4.72;2.00;;;;;;;10.08;89.55;101782.53;4995070;28;20433;-63
2022/11/13 05:47:49;;;;;;;3.65;2.28;;;;;;;9.88;91.22;101794.38;4994774;28;20049;-63
2022/11/13 05:50:14;;;;;;;5.15;3.33;;;;;;;9.72;92.75;101785.97;4990720;28;20102;-63
2022/11/13 05:52:40;;;;;;;6.47;3.15;;;;;;;9.53;94.00;101787.22;4991750;28;20046;-63
2022/11/13 05:55:06;;;;;;;3.05;2.33;;;;;;;9.38;95.60;101801.31;4995214;28;20042;-62
2022/11/13 05:57:31;;;;;;;4.82;2.28;;;;;;;9.23;97.04;101807.53;4992583;28;20389;-62
2022/11/13 05:59:57;;;;;;;3.65;2.03;;;;;;;9.09;98.74;101831.00;4987907;28;20041;-62
2022/11/13 06:02:22;;;;;;;6.25;2.50;;;;;;;8.99;100.00;101847.22;4991022;28;20026;-63
2022/11/13 06:04:48;;;;;;;5.07;2.10;;;;;;;8.98;100.00;101849.91;4995732;28;20030;-62
2022/11/13 06:07:14;;;;;;;3.67;1.83;;;;;;;8.95;100.00;101845.78;4991562;28;20092;-62
2022/11/13 06:09:39;;;;;;;3.25;1.83;;;;;;;8.87;100.00;101824.66;4989951;28;20045;-62
2022/11/13 06:12:05;;;;;;;4.03;1.70;;;;;;;8.77;100.00;101815.78;4988706;28;20034;-62
2022/11/13 06:14:30;;;;;;;6.15;2.85;;;;;;;8.88;100.00;101810.72;4995824;28;20466;-63
2022/11/13 06:16:56;;;;;;;2.80;1.67;;;;;;;9.20;97.76;101818.97;4995590;28;20120;-62
2022/11/13 06:19:21;;;;;;;4.60;1.50;;;;;;;9.50;94.76;101805.63;4994965;28;20033;-63
2022/11/13 06:21:47;;;;;;;2.97;1.33;;;;;;;9.69;93.80;101812.19;4991531;28;20034;-62
2022/11/13 06:24:12;;;;;;;6.93;3.30;;;;;;;9.54;95.55;101807.09;4987543;28;20040;-63
2022/11/13 06:26:38;;;;;;;6.28;4.68;;;;;;;9.29;98.51;101820.13;4992505;28;20227;-63
2022/11/13 06:29:05;;;;;;;4.97;3.47;;;;;;;9.00;100.00;101806.44;4994996;28;20037;-62
2022/11/13 06:31:33;;;;;;;5.85;2.03;;;;;;;9.01;99.19;101804.69;4995791;28;20163;-63
2022/11/13 06:33:59;;;;;;;2.85;1.75;;;;;;;9.54;93.19;101790.66;5003428;28;20500;-63
2022/11/13 06:36:28;;;;;;;3.88;2.08;;;;;;;10.28;86.78;101785.41;4987176;28;20030;-63
2022/11/13 06:38:53;;;;;;;4.50;1.98;;;;;;;10.62;85.44;101785.53;4988916;28;20049;-62
2022/11/13 06:41:22;;;;;;;3.17;2.00;;;;;;;11.02;77.36;101787.78;4995078;28;20023;-64
2022/11/13 06:43:48;;;;;;;4.78;2.38;;;;;;;11.33;79.40;101789.75;4991465;28;20034;-63
2022/11/13 06:46:17;;;;;;;4.03;2.55;;;;;;;11.42;79.55;101788.19;4988895;28;20390;-62
2022/11/13 06:48:43;;;;;;;4.78;3.15;;;;;;;11.26;81.88;101807.66;4990918;28;20034;-63
2022/11/13 06:51:16;;;;;;;5.32;3.83;;;;;;;11.01;84.05;101794.78;4988987;28;20030;-63
2022/11/13 06:53:42;;;;;;;5.45;3.35;;;;;;;10.76;87.23;101774.09;4989633;28;20731;-62
2022/11/13 06:56:08;;;;;;;4.10;3.05;;;;;;;10.69;85.52;101778.09;4990613;28;20038;-63
2022/11/13 06:58:33;;;;;;;6.38;4.03;;;;;;;11.01;82.12;101775.69;4995090;28;20104;-63
2022/11/13 07:01:25;;;;;;;5.70;3.58;;;;;;;11.50;71.23;101762.34;4994478;28;20392;-63
2022/11/13 07:03:51;;;;;;;4.15;3.05;;;;;;;11.85;71.62;101752.59;4990537;28;20065;-65
2022/11/13 07:06:20;;;;;;;4.18;3.55;;;;;;;12.09;70.84;101746.38;4996026;28;20069;-63
2022/11/13 07:08:46;;;;;;;5.00;3.80;;;;;;;12.00;72.55;101744.50;4991621;28;20406;-63
2022/11/13 07:11:14;;;;;;;5.13;3.13;;;;;;;12.03;69.38;101734.63;4990189;28;20084;-63
2022/11/13 07:13:41;;;;;;;4.60;3.03;;;;;;;12.09;71.21;101726.31;4990904;28;20015;-63
2022/11/13 07:16:08;;;;;;;4.68;3.55;;;;;;;12.01;71.72;101739.16;4990294;28;20038;-63
2022/11/13 07:18:33;;;;;;;7.50;3.72;;;;;;;12.03;71.65;101744.25;4986216;28;20043;-62
2022/11/13 07:21:04;;;;;;;5.25;3.80;;;;;;;12.00;71.31;101750.56;4992771;28;20053;-63
2022/11/13 07:23:30;;;;;;;4.97;3.78;;;;;;;12.04;71.99;101758.97;4995619;28;20034;-64
2022/11/13 07:25:55;;;;;;;5.88;4.50;;;;;;;12.13;69.67;101761.69;4997498;28;20488;-62
2022/11/13 07:28:21;;;;;;;3.72;3.33;;;;;;;12.09;72.89;101760.28;4984793;28;20030;-63
2022/11/13 07:30:46;;;;;;;5.45;4.20;;;;;;;11.94;75.88;101754.47;5003411;28;20026;-64
2022/11/13 07:33:11;;;;;;;6.07;4.05;;;;;;;11.69;78.98;101757.34;4994777;28;20190;-63
2022/11/13 07:35:37;;;;;;;3.90;3.47;;;;;;;11.49;81.12;101751.06;4997070;28;20440;-63
2022/11/13 07:38:02;;;;;;;6.53;3.67;;;;;;;11.36;83.12;101750.34;4991378;28;20052;-64
2022/11/13 07:40:28;;;;;;;5.03;3.95;;;;;;;11.25;84.46;101743.38;4987469;28;20034;-63
2022/11/13 07:43:01;;;;;;;3.33;2.97;;;;;;;11.17;85.47;101731.88;4998182;28;20125;-63
2022/11/13 07:45:27;;;;;;;6.53;3.85;;;;;;;11.11;87.94;101734.94;4989007;28;20033;-63
2022/11/13 07:47:58;;;;;;;7.00;3.95;;;;;;;11.04;87.90;101734.56;5001989;28;20026;-64
2022/11/13 07:50:23;;;;;;;5.30;3.95;;;;;;;11.05;87.76;101736.22;4993664;28;20026;-63
2022/11/13 07:52:57;;;;;;;5.75;4.20;;;;;;;11.03;88.23;101737.28;4991062;28;20030;-64
2022/11/13 07:55:23;;;;;;;7.93;4.03;;;;;;;11.06;88.11;101744.88;4989489;28;20540;-63
2022/11/13 07:57:48;;;;;;;4.50;3.65;;;;;;;11.12;87.79;101741.81;4995567;28;20102;-63
2022/11/13 08:00:14;;;;;;;10.40;4.35;;;;;;;11.16;87.62;101732.81;4988536;28;20383;-63
2022/11/13 08:02:42;;;;;;;4.22;3.80;;;;;;;11.39;84.86;101729.25;4995161;28;20032;-63
2022/11/13 08:05:08;;;;;;;9.70;5.53;;;;;;;11.53;83.37;101731.63;4990391;28;20470;-64
2022/11/13 08:07:33;;;;;;;6.00;4.20;;;;;;;11.64;82.84;101744.66;4988059;28;20034;-63
2022/11/13 08:09:59;;;;;;;6.95;4.50;;;;;;;11.54;84.42;101748.09;4990262;28;20053;-63
2022/11/13 08:12:24;;;;;;;6.80;4.50;;;;;;;11.43;85.98;101741.09;4992811;28;20034;-64
2022/11/13 08:14:50;;;;;;;5.80;5.15;;;;;;;11.34;87.37;101757.50;4989898;28;20031;-63
2022/11/13 08:17:15;;;;;;;6.50;4.80;;;;;;;11.32;87.92;101754.16;4988194;28;20030;-63
2022/11/13 08:19:40;;;;;;;6.40;4.30;;;;;;;11.35;88.13;101751.28;4983182;28;20386;-64
2022/11/13 08:22:06;;;;;;;6.70;4.45;;;;;;;11.39;88.44;101739.69;4984407;28;20046;-64
2022/11/13 08:24:31;;;;;;;5.97;4.13;;;;;;;11.43;88.18;101732.44;4986356;28;20034;-64
2022/11/13 08:26:57;;;;;;;6.90;5.07;;;;;;;11.46;87.89;101719.16;4989489;28;20141;-63
2022/11/13 08:29:22;;;;;;;8.90;4.30;;;;;;;11.48;87.95;101727.69;4987871;28;21241;-64
2022/11/13 08:31:48;;;;;;;5.53;4.95;;;;;;;11.47;88.23;101736.47;4996180;28;20030;-63
2022/11/13 08:34:13;;;;;;;5.68;4.53;;;;;;;11.45;88.48;101733.16;4984938;28;20034;-63
2022/11/13 08:36:39;;;;;;;6.55;4.63;;;;;;;11.54;86.55;101694.13;4989212;28;20054;-63
2022/11/13 08:39:04;;;;;;;5.70;4.38;;;;;;;11.74;84.38;101729.09;4982063;28;20031;-63
2022/11/13 08:41:29;;;;;;;6.30;5.13;;;;;;;11.78;86.28;101761.06;4997569;28;20041;-63
2022/11/13 08:43:55;;;;;;;7.20;5.18;;;;;;;11.72;87.40;101761.50;5000028;28;20030;-63
2022/11/13 08:46:20;;;;;;;6.72;5.32;;;;;;;11.70;87.38;101745.13;4996094;28;20161;-63
2022/11/13 08:48:46;;;;;;;6.03;5.30;;;;;;;11.79;86.46;101728.78;4999005;28;20037;-63
2022/11/13 08:51:11;;;;;;;7.57;5.32;;;;;;;11.86;86.25;101716.88;4994699;28;20512;-64
2022/11/13 08:53:37;;;;;;;7.47;5.55;;;;;;;11.85;86.54;101725.66;4998876;28;20059;-63
2022/11/13 08:56:02;;;;;;;9.85;5.65;;;;;;;11.81;86.61;101727.72;4995415;28;20034;-63
2022/11/13 08:58:27;;;;;;;6.75;5.18;;;;;;;11.78;86.86;101727.94;4987797;28;20039;-63
2022/11/13 09:00:59;;;;;;;6.88;5.20;;;;;;;11.80;87.30;101727.81;4993962;28;20026;-65
2022/11/13 09:03:24;;;;;;;5.43;4.93;;;;;;;11.86;87.38;101732.53;4990520;28;20470;-62
2022/11/13 09:05:49;;;;;;;6.53;5.50;;;;;;;11.95;87.33;101737.03;4995444;28;20026;-62
2022/11/13 09:08:15;;;;;;;5.97;4.88;;;;;;;11.95;87.75;101737.03;4986369;28;20099;-63
2022/11/13 09:10:40;;;;;;;6.07;5.35;;;;;;;12.01;86.80;101731.31;5000630;28;20034;-63
2022/11/13 09:13:08;;;;;;;7.03;5.40;;;;;;;12.01;87.07;101736.53;5000178;28;20125;-63
2022/11/13 09:15:36;;;;;;;6.47;4.80;;;;;;;12.02;86.96;101740.81;4994026;28;20165;-63
2022/11/13 09:18:02;;;;;;;8.48;6.50;;;;;;;12.05;86.89;101732.72;4988398;28;20072;-63
2022/11/13 09:20:28;;;;;;;7.15;5.78;;;;;;;12.08;86.84;101722.03;4990155;28;20458;-63
2022/11/13 09:22:59;;;;;;;7.30;5.57;;;;;;;12.11;86.29;101706.13;4990012;28;20030;-65
2022/11/13 09:25:25;;;;;;;6.50;5.32;;;;;;;12.17;85.19;101704.78;4993708;28;20063;-65
2022/11/13 09:27:55;;;;;;;5.03;4.32;;;;;;;12.26;84.06;101696.22;4993922;28;20120;-65
2022/11/13 09:30:22;;;;;;;4.97;4.47;;;;;;;12.28;84.02;101676.84;4990686;28;20044;-64
2022/11/13 09:32:51;;;;;;;5.90;5.15;;;;;;;12.26;84.24;101681.38;4995529;28;20358;-66
2022/11/13 09:35:32;;;;;;;5.70;5.10;;;;;;;12.40;84.33;101697.66;4986689;28;20033;-65
2022/11/13 09:37:58;;;;;;;8.02;5.30;;;;;;;12.54;83.96;101706.03;4988244;28;20472;-65
2022/11/13 09:40:29;;;;;;;5.60;4.95;;;;;;;12.61;84.12;101704.56;4994218;28;20517;-65
2022/11/13 09:42:55;;;;;;;7.93;4.95;;;;;;;12.61;84.64;101703.75;4996067;28;20034;-65
2022/11/13 09:45:20;;;;;;;6.28;5.30;;;;;;;12.61;84.79;101699.34;4995311;28;20064;-65
2022/11/13 09:47:48;;;;;;;8.30;6.35;;;;;;;12.63;84.99;101712.28;4995123;28;20030;-65
2022/11/13 09:50:27;;;;;;;6.85;5.22;;;;;;;12.63;85.33;101709.69;4988258;28;20385;-65
2022/11/13 09:52:53;;;;;;;7.57;5.57;;;;;;;12.63;84.65;101717.53;4994146;28;20037;-65
2022/11/13 09:55:24;;;;;;;8.52;5.95;;;;;;;12.66;84.64;101724.28;4989722;28;20034;-65
2022/11/13 09:58:05;;;;;;;7.30;5.93;;;;;;;12.60;84.11;101716.00;5004872;28;20096;-66
2022/11/13 10:00:33;;;;;;;6.80;5.57;;;;;;;12.54;85.53;101713.88;4994084;28;20042;-64
2022/11/13 10:03:29;;;;;;;6.63;5.85;;;;;;;12.47;82.37;101715.34;4993952;28;20042;-62
2022/11/13 10:06:05;;;;;;;7.55;5.25;;;;;;;12.50;84.65;101695.97;4989212;28;20384;-62
2022/11/13 10:08:50;;;;;;;6.75;5.32;;;;;;;12.50;84.20;101698.56;4987367;28;20042;-62
2022/11/13 10:11:40;;;;;;;6.45;5.72;;;;;;;12.51;83.05;101681.94;4992918;28;20584;-62
2022/11/13 10:14:20;;;;;;;5.93;4.70;;;;;;;12.76;75.38;101663.22;4986492;28;20516;-62
2022/11/13 10:16:56;;;;;;;4.93;4.10;;;;;;;12.88;78.59;101670.03;4986959;28;20019;-62
2022/11/13 10:19:37;;;;;;;6.18;4.10;;;;;;;12.88;77.93;101662.19;4986599;28;20354;-62
2022/11/13 10:22:11;;;;;;;3.58;2.83;;;;;;;13.27;74.68;101664.97;4987328;28;20084;-62
2022/11/13 10:24:44;;;;;;;3.75;2.70;;;;;;;13.59;67.66;101657.78;4992759;28;20045;-62
2022/11/13 10:27:12;;;;;;;3.13;2.20;;;;;;;13.71;69.97;101662.88;4992049;28;20034;-61
2022/11/13 10:29:39;;;;;;;3.60;3.03;;;;;;;13.53;71.91;101666.16;4992703;28;20030;-62
2022/11/13 10:32:27;;;;;;;3.75;3.13;;;;;;;13.32;69.04;101656.72;4992240;28;20042;-62
2022/11/13 10:34:58;;;;;;;3.83;3.03;;;;;;;13.48;70.55;101655.28;4992577;28;20603;-63
2022/11/13 10:38:01;;;;;;;4.15;3.75;;;;;;;13.60;70.85;101659.44;4992714;28;20440;-62
2022/11/13 10:40:32;;;;;;;7.53;5.47;;;;;;;13.66;75.33;101659.84;4985678;28;20042;-62
2022/11/13 10:43:25;;;;;;;10.50;6.03;;;;;;;13.64;73.29;101654.75;4992290;28;20031;-62
2022/11/13 10:45:56;;;;;;;7.10;6.20;;;;;;;13.72;77.28;101654.06;4989958;28;20133;-63
2022/11/13 10:48:28;;;;;;;8.98;5.63;;;;;;;13.73;77.88;101642.59;4984940;28;20089;-63
2022/11/13 10:50:58;;;;;;;5.45;4.93;;;;;;;13.65;78.87;101632.00;4992859;28;20034;-63
2022/11/13 10:53:25;;;;;;;6.68;5.22;;;;;;;13.52;79.47;101629.66;4988772;28;20129;-63
2022/11/13 10:55:55;;;;;;;6.15;4.22;;;;;;;13.43;79.78;101618.19;4992606;28;20034;-63
2022/11/13 10:58:21;;;;;;;6.00;5.18;;;;;;;13.43;78.99;101618.19;4984536;28;20023;-63
2022/11/13 11:00:48;;;;;;;4.80;4.30;;;;;;;13.41;79.02;101617.50;4992612;28;20038;-64
2022/11/13 11:03:23;;;;;;;7.07;4.80;;;;;;;13.42;78.27;101594.75;4992006;28;20470;-64
2022/11/13 11:06:00;;;;;;;5.13;4.15;;;;;;;13.38;78.20;101596.81;4992164;28;20042;-66
2022/11/13 11:08:33;;;;;;;6.07;4.63;;;;;;;13.35;77.96;101585.78;4992138;28;20457;-66
2022/11/13 11:13:51;;;;;;;5.43;3.97;;;;;;;13.44;78.50;101570.09;4992520;28;20045;-65
2022/11/13 11:16:23;;;;;;;7.30;3.90;;;;;;;13.40;77.36;101566.09;4991957;28;20034;-65
2022/11/13 11:18:56;;;;;;;5.65;4.10;;;;;;;13.42;78.37;101563.34;4992347;28;20703;-65
2022/11/13 11:21:27;;;;;;;4.32;3.70;;;;;;;13.44;79.46;101557.00;4984360;28;20053;-66
2022/11/13 11:24:03;;;;;;;4.35;3.70;;;;;;;13.46;80.74;101559.50;4992157;28;20038;-64
2022/11/13 11:26:36;;;;;;;5.20;4.00;;;;;;;13.46;81.37;101547.22;4985224;28;20493;-65
2022/11/13 11:29:32;;;;;;;6.80;4.25;;;;;;;13.50;79.00;101550.41;4991628;28;20117;-65
2022/11/13 11:32:04;;;;;;;4.30;3.50;;;;;;;13.64;78.89;101559.66;4991415;28;20121;-65
2022/11/13 11:34:42;;;;;;;4.22;3.83;;;;;;;13.82;77.77;101571.91;4992048;28;20026;-65